createdAt,value
2023-06-19T00:00:25.465Z,28
2023-06-19T00:02:56.565Z,26
2023-06-19T00:05:26.979Z,31
2023-06-19T00:07:58.194Z,31
2023-06-19T00:10:29.375Z,28
2023-06-19T00:12:59.869Z,25
2023-06-19T00:15:30.807Z,32
2023-06-19T00:18:01.258Z,28
2023-06-19T00:20:31.751Z,26
2023-06-19T00:23:02.570Z,28
2023-06-19T00:25:32.590Z,28
2023-06-19T00:28:02.964Z,28
2023-06-19T00:30:33.367Z,28
2023-06-19T00:33:04.111Z,25
2023-06-19T00:35:34.553Z,25
2023-06-19T00:38:05.596Z,30
2023-06-19T00:40:36.395Z,25
2023-06-19T00:43:07.590Z,28
2023-06-19T00:45:37.955Z,27
2023-06-19T00:48:08.709Z,28
2023-06-19T00:50:40.245Z,27
2023-06-19T00:53:09.719Z,32
2023-06-19T00:55:40.447Z,25
2023-06-19T00:58:12.551Z,26
2023-06-19T01:00:52.882Z,28
2023-06-19T01:03:18.744Z,24
2023-06-19T01:05:47.276Z,24
2023-06-19T01:08:18.025Z,27
2023-06-19T01:10:49.778Z,22
2023-06-19T01:13:21.061Z,27
2023-06-19T01:15:52.740Z,23
2023-06-19T01:18:23.660Z,28
2023-06-19T01:20:55.101Z,28
2023-06-19T01:23:25.723Z,26
2023-06-19T01:25:56.625Z,21
2023-06-19T01:28:27.224Z,24
2023-06-19T01:30:58.114Z,28
2023-06-19T01:33:29.035Z,24
2023-06-19T01:35:59.885Z,28
2023-06-19T01:38:31.032Z,23
2023-06-19T01:41:01.819Z,23
2023-06-19T01:43:32.493Z,25
2023-06-19T01:46:03.783Z,24
2023-06-19T01:48:35.692Z,24
2023-06-19T01:51:06.355Z,28
2023-06-19T01:53:37.026Z,27
2023-06-19T01:56:07.707Z,27
2023-06-19T01:58:41.223Z,27
2023-06-19T02:01:11.803Z,24
2023-06-19T02:03:44.715Z,25
2023-06-19T02:06:15.588Z,28
2023-06-19T02:08:46.611Z,24
2023-06-19T02:11:17.346Z,24
2023-06-19T02:13:47.812Z,28
2023-06-19T02:16:19.493Z,28
2023-06-19T02:18:50.076Z,23
2023-06-19T02:21:20.913Z,25
2023-06-19T02:23:51.969Z,25
2023-06-19T02:26:22.857Z,24
2023-06-19T02:28:53.645Z,22
2023-06-19T02:31:24.368Z,25
2023-06-19T02:33:54.500Z,24
2023-06-19T02:36:25.509Z,27
2023-06-19T02:38:56.335Z,32
2023-06-19T02:41:27.057Z,32
2023-06-19T02:43:58.073Z,30
2023-06-19T02:46:28.772Z,25
2023-06-19T02:48:59.381Z,24
2023-06-19T02:51:30.118Z,27
2023-06-19T02:54:01.065Z,24
2023-06-19T02:56:32.197Z,28
2023-06-19T02:59:03.482Z,23
2023-06-19T03:01:34.169Z,24
2023-06-19T03:04:05.795Z,24
2023-06-19T03:06:37.041Z,24
2023-06-19T03:09:07.666Z,24
2023-06-19T03:11:38.704Z,23
2023-06-19T03:14:10.899Z,21
2023-06-19T03:16:41.785Z,23
2023-06-19T03:19:13.154Z,24
2023-06-19T03:21:44.033Z,24
2023-06-19T03:24:15.005Z,28
2023-06-19T03:26:45.695Z,27
2023-06-19T03:29:16.132Z,25
2023-06-19T03:31:47.594Z,28
2023-06-19T03:34:19.682Z,20
2023-06-19T03:36:51.269Z,31
2023-06-19T03:39:22.998Z,25
2023-06-19T03:41:53.985Z,27
2023-06-19T03:44:24.488Z,25
2023-06-19T03:46:55.819Z,24
2023-06-19T03:49:26.710Z,23
2023-06-19T03:51:57.207Z,20
2023-06-19T03:54:28.314Z,24
2023-06-19T03:57:00.807Z,24
2023-06-19T03:59:32.551Z,20
2023-06-19T04:02:03.140Z,25
2023-06-19T04:04:33.634Z,27
2023-06-19T04:07:03.908Z,25
2023-06-19T04:09:33.177Z,29
2023-06-19T04:12:05.765Z,26
2023-06-19T04:14:36.666Z,27
2023-06-19T04:17:07.321Z,33
2023-06-19T04:19:38.084Z,36
2023-06-19T04:22:08.752Z,35
2023-06-19T04:24:39.842Z,35
2023-06-19T04:27:10.608Z,32
2023-06-19T04:29:42.129Z,39
2023-06-19T04:32:13.176Z,31
2023-06-19T04:34:44.073Z,28
2023-06-19T04:37:14.822Z,33
2023-06-19T04:39:45.921Z,32
2023-06-19T04:42:16.774Z,47
2023-06-19T04:44:46.284Z,37
2023-06-19T04:47:18.388Z,31
2023-06-19T04:49:49.384Z,33
2023-06-19T04:52:21.429Z,29
2023-06-19T04:54:51.952Z,29
2023-06-19T04:57:22.741Z,36
2023-06-19T04:59:53.788Z,37
2023-06-19T05:02:24.395Z,56
2023-06-19T05:04:55.043Z,43
2023-06-19T05:07:27.053Z,36
2023-06-19T05:09:58.621Z,33
2023-06-19T05:12:29.246Z,30
2023-06-19T05:15:00.222Z,34
2023-06-19T05:17:30.841Z,43
2023-06-19T05:20:02.458Z,35
2023-06-19T05:22:33.036Z,37
2023-06-19T05:25:03.665Z,30
2023-06-19T05:27:34.253Z,31
2023-06-19T05:30:04.917Z,30
2023-06-19T05:32:37.414Z,31
2023-06-19T05:35:08.427Z,27
2023-06-19T05:37:39.131Z,32
2023-06-19T05:40:10.089Z,29
2023-06-19T05:42:40.467Z,36
2023-06-19T05:45:11.036Z,27
2023-06-19T05:47:42.087Z,29
2023-06-19T05:50:13.272Z,27
2023-06-19T05:52:45.236Z,29
2023-06-19T05:55:16.496Z,26
2023-06-19T05:57:49.197Z,28
2023-06-19T06:00:19.882Z,30
2023-06-19T06:02:50.990Z,28
2023-06-19T06:05:21.553Z,31
2023-06-19T06:07:53.055Z,28
2023-06-19T06:10:24.204Z,26
2023-06-19T06:12:55.205Z,28
2023-06-19T06:15:25.809Z,24
2023-06-19T06:17:56.559Z,25
2023-06-19T06:20:27.228Z,28
2023-06-19T06:22:58.413Z,34
2023-06-19T06:25:29.742Z,30
2023-06-19T06:27:59.937Z,23
2023-06-19T06:30:30.530Z,21
2023-06-19T06:33:01.267Z,28
2023-06-19T06:35:32.323Z,28
2023-06-19T06:38:03.740Z,24
2023-06-19T06:40:34.559Z,25
2023-06-19T06:43:05.338Z,21
2023-06-19T06:45:36.303Z,18
2023-06-19T06:48:06.852Z,17
2023-06-19T06:50:38.045Z,24
2023-06-19T06:53:10.819Z,23
2023-06-19T06:55:41.595Z,25
2023-06-19T06:58:12.106Z,27
2023-06-19T07:00:42.870Z,25
2023-06-19T07:03:13.789Z,24
2023-06-19T07:05:44.243Z,24
2023-06-19T07:08:15.012Z,21
2023-06-19T07:10:45.653Z,21
2023-06-19T07:13:16.254Z,28
2023-06-19T07:15:47.517Z,20
2023-06-19T07:18:18.056Z,24
2023-06-19T07:20:48.449Z,24
2023-06-19T07:23:19.198Z,25
2023-06-19T07:25:50.044Z,26
2023-06-19T07:28:22.023Z,25
2023-06-19T07:30:55.875Z,17
2023-06-19T07:33:26.486Z,23
2023-06-19T07:36:00.164Z,20
2023-06-19T07:38:34.356Z,21
2023-06-19T07:41:06.297Z,18
2023-06-19T07:43:37.101Z,20
2023-06-19T07:46:08.000Z,32
2023-06-19T07:48:39.960Z,16
2023-06-19T07:51:10.686Z,29
2023-06-19T07:53:42.725Z,20
2023-06-19T07:56:13.446Z,25
2023-06-19T07:58:44.426Z,27
2023-06-19T08:01:16.464Z,21
2023-06-19T08:03:47.363Z,21
2023-06-19T08:06:17.942Z,24
2023-06-19T08:08:48.865Z,25
2023-06-19T08:11:20.342Z,20
2023-06-19T08:13:51.173Z,25
2023-06-19T08:16:24.865Z,21
2023-06-19T08:18:55.818Z,24
2023-06-19T08:21:26.359Z,25
2023-06-19T08:23:57.957Z,23
2023-06-19T08:26:28.607Z,25
2023-06-19T08:28:58.904Z,21
2023-06-19T08:31:29.628Z,23
2023-06-19T08:34:00.402Z,24
2023-06-19T08:36:31.270Z,25
2023-06-19T08:39:01.862Z,27
2023-06-19T08:41:34.579Z,22
2023-06-19T08:44:05.273Z,25
2023-06-19T08:46:35.940Z,25
2023-06-19T08:49:06.665Z,27
2023-06-19T08:51:37.693Z,25
2023-06-19T08:54:08.584Z,24
2023-06-19T08:56:39.015Z,23
2023-06-19T08:59:09.609Z,25
2023-06-19T09:01:39.966Z,34
2023-06-19T09:04:11.401Z,21
2023-06-19T09:06:42.768Z,25
2023-06-19T09:09:14.602Z,22
2023-06-19T09:11:45.440Z,24
2023-06-19T09:14:16.269Z,21
2023-06-19T09:16:47.060Z,24
2023-06-19T09:19:17.941Z,25
2023-06-19T09:21:48.839Z,21
2023-06-19T09:24:19.474Z,23
2023-06-19T09:26:50.053Z,21
2023-06-19T09:29:21.688Z,23
2023-06-19T09:31:52.425Z,20
2023-06-19T09:34:22.968Z,24
2023-06-19T09:36:53.894Z,20
2023-06-19T09:39:24.533Z,27
2023-06-19T09:41:55.163Z,20
2023-06-19T09:44:25.830Z,24
2023-06-19T09:46:56.338Z,23
2023-06-19T09:49:27.357Z,27
2023-06-19T09:51:57.914Z,21
2023-06-19T09:54:28.520Z,23
2023-06-19T09:56:59.442Z,21
2023-06-19T09:59:30.810Z,23
2023-06-19T10:02:01.439Z,23
2023-06-19T10:04:32.007Z,23
2023-06-19T10:07:03.078Z,23
2023-06-19T10:09:33.918Z,38
2023-06-19T10:12:04.784Z,20
2023-06-19T10:14:35.292Z,20
2023-06-19T10:17:06.584Z,28
2023-06-19T10:19:37.559Z,20
2023-06-19T10:22:08.304Z,26
2023-06-19T10:24:39.080Z,24
2023-06-19T10:27:09.751Z,27
2023-06-19T10:29:40.301Z,28
2023-06-19T10:32:11.016Z,21
2023-06-19T10:34:42.138Z,22
2023-06-19T10:37:12.858Z,25
2023-06-19T10:39:43.424Z,29
2023-06-19T10:42:14.170Z,23
2023-06-19T10:44:44.593Z,24
2023-06-19T10:47:15.369Z,20
2023-06-19T10:49:45.971Z,21
2023-06-19T10:52:16.849Z,23
2023-06-19T10:54:48.389Z,22
2023-06-19T10:57:19.522Z,20
2023-06-19T10:59:50.457Z,24
2023-06-19T11:02:23.151Z,19
2023-06-19T11:04:53.698Z,20
2023-06-19T11:07:23.985Z,21
2023-06-19T11:09:54.419Z,23
2023-06-19T11:12:24.762Z,23
2023-06-19T11:14:55.331Z,23
2023-06-19T11:17:26.038Z,21
2023-06-19T11:19:57.612Z,23
2023-06-19T11:22:28.294Z,22
2023-06-19T11:25:02.793Z,21
2023-06-19T11:27:34.726Z,23
2023-06-19T11:30:05.342Z,24
2023-06-19T11:32:38.563Z,22
2023-06-19T11:35:09.130Z,23
2023-06-19T11:37:39.888Z,24
2023-06-19T11:40:14.883Z,22
2023-06-19T11:42:46.277Z,24
2023-06-19T11:45:16.882Z,24
2023-06-19T11:47:47.579Z,24
2023-06-19T11:50:18.272Z,27
2023-06-19T11:52:48.984Z,22
2023-06-19T11:55:19.658Z,21
2023-06-19T11:57:50.494Z,25
2023-06-19T12:00:22.332Z,23
2023-06-19T12:02:52.983Z,25
2023-06-19T12:05:23.230Z,25
2023-06-19T12:07:53.932Z,31
2023-06-19T12:10:25.330Z,26
2023-06-19T12:12:57.288Z,31
2023-06-19T12:15:29.532Z,23
2023-06-19T12:18:00.278Z,27
2023-06-19T12:20:30.838Z,20
2023-06-19T12:23:01.447Z,25
2023-06-19T12:25:33.184Z,23
2023-06-19T12:28:03.588Z,21
2023-06-19T12:30:34.679Z,28
2023-06-19T12:33:05.221Z,27
2023-06-19T12:35:35.757Z,23
2023-06-19T12:38:07.676Z,22
2023-06-19T12:40:37.610Z,25
2023-06-19T12:43:08.267Z,24
2023-06-19T12:45:39.101Z,25
2023-06-19T12:48:10.441Z,24
2023-06-19T12:50:41.133Z,27
2023-06-19T12:53:11.677Z,25
2023-06-19T12:55:59.861Z,24
2023-06-19T12:58:15.587Z,24
2023-06-19T13:00:45.835Z,27
2023-06-19T13:03:16.923Z,27
2023-06-19T13:05:47.238Z,27
2023-06-19T13:08:18.512Z,26
2023-06-19T13:10:48.962Z,25
2023-06-19T13:13:20.027Z,25
2023-06-19T13:15:50.779Z,30
2023-06-19T13:18:21.726Z,25
2023-06-19T13:20:52.054Z,25
2023-06-19T13:23:22.675Z,21
2023-06-19T13:25:53.504Z,25
2023-06-19T13:28:25.926Z,20
2023-06-19T13:30:56.414Z,28
2023-06-19T13:33:30.828Z,38
2023-06-19T13:36:01.202Z,25
2023-06-19T13:38:31.934Z,27
2023-06-19T13:41:02.643Z,23
2023-06-19T13:43:33.133Z,27
2023-06-19T13:46:03.968Z,28
2023-06-19T13:48:34.524Z,25
2023-06-19T13:51:05.317Z,21
2023-06-19T13:53:36.504Z,24
2023-06-19T13:56:07.097Z,25
2023-06-19T13:58:38.056Z,22
2023-06-19T14:01:08.710Z,29
2023-06-19T14:03:39.134Z,24
2023-06-19T14:06:09.879Z,25
2023-06-19T14:08:40.644Z,21
2023-06-19T14:11:11.478Z,19
2023-06-19T14:13:41.880Z,27
2023-06-19T14:16:12.491Z,27
2023-06-19T14:18:43.220Z,23
2023-06-19T14:21:13.855Z,24
2023-06-19T14:23:44.483Z,31
2023-06-19T14:26:14.997Z,24
2023-06-19T14:28:46.411Z,24
2023-06-19T14:31:16.999Z,21
2023-06-19T14:33:47.575Z,24
2023-06-19T14:36:18.011Z,25
2023-06-19T14:38:51.872Z,24
2023-06-19T14:41:24.994Z,25
2023-06-19T14:43:55.250Z,28
2023-06-19T14:46:38.028Z,25
2023-06-19T14:48:56.089Z,23
2023-06-19T14:51:26.873Z,21
2023-06-19T14:53:57.693Z,19
2023-06-19T14:56:28.358Z,25
2023-06-19T14:58:58.909Z,24
2023-06-19T15:01:31.397Z,23
2023-06-19T15:04:02.278Z,24
2023-06-19T15:06:32.621Z,21
2023-06-19T15:09:04.957Z,27
2023-06-19T15:11:33.749Z,25
2023-06-19T15:14:04.092Z,27
2023-06-19T15:16:36.762Z,25
2023-06-19T15:19:05.529Z,27
2023-06-19T15:21:36.163Z,24
2023-06-19T15:24:06.774Z,24
2023-06-19T15:26:40.264Z,24
2023-06-19T15:29:10.264Z,20
2023-06-19T15:31:41.269Z,28
2023-06-19T15:34:12.143Z,20
2023-06-19T15:36:43.185Z,23
2023-06-19T15:39:14.150Z,24
2023-06-19T15:41:45.844Z,28
2023-06-19T15:44:16.896Z,20
2023-06-19T15:46:47.592Z,36
2023-06-19T15:49:19.871Z,24
2023-06-19T15:51:52.285Z,24
2023-06-19T15:54:22.909Z,25
2023-06-19T15:56:54.096Z,27
2023-06-19T15:59:25.596Z,28
2023-06-19T16:01:57.272Z,38
2023-06-19T16:04:27.714Z,26
2023-06-19T16:06:58.673Z,55
2023-06-19T16:09:37.164Z,36
2023-06-19T16:12:02.949Z,28
2023-06-19T16:14:33.833Z,28
2023-06-19T16:17:04.314Z,33
2023-06-19T16:19:36.360Z,30
2023-06-19T16:22:05.456Z,33
2023-06-19T16:24:36.107Z,23
2023-06-19T16:27:06.842Z,27
2023-06-19T16:29:37.503Z,27
2023-06-19T16:32:09.949Z,28
2023-06-19T16:34:39.542Z,28
2023-06-19T16:37:11.666Z,47
2023-06-19T16:39:42.103Z,48
2023-06-19T16:42:12.742Z,29
2023-06-19T16:44:43.221Z,35
2023-06-19T16:47:13.915Z,32
2023-06-19T16:49:44.448Z,25
2023-06-19T16:52:17.038Z,32
2023-06-19T16:54:49.457Z,32
2023-06-19T16:57:20.818Z,32
2023-06-19T16:59:51.430Z,24
2023-06-19T17:02:22.219Z,26
2023-06-19T17:04:54.092Z,24
2023-06-19T17:07:24.442Z,31
2023-06-19T17:09:56.517Z,24
2023-06-19T17:12:27.677Z,27
2023-06-19T17:14:58.035Z,30
2023-06-19T17:17:28.634Z,28
2023-06-19T17:20:00.515Z,29
2023-06-19T17:22:31.108Z,29
2023-06-19T17:25:00.367Z,29
2023-06-19T17:27:31.582Z,28
2023-06-19T17:30:02.173Z,31
2023-06-19T17:32:33.216Z,35
2023-06-19T17:35:04.263Z,36
2023-06-19T17:37:34.997Z,32
2023-06-19T17:40:05.940Z,30
2023-06-19T17:42:36.828Z,32
2023-06-19T17:45:07.348Z,52
2023-06-19T17:47:36.432Z,45
2023-06-19T17:50:06.896Z,32
2023-06-19T17:52:37.503Z,35
2023-06-19T17:55:08.377Z,32
2023-06-19T17:57:38.952Z,31
2023-06-19T18:00:09.992Z,35
2023-06-19T18:02:40.641Z,43
2023-06-19T18:05:11.515Z,36
2023-06-19T18:07:42.279Z,37
2023-06-19T18:10:14.713Z,38
2023-06-19T18:12:45.118Z,36
2023-06-19T18:15:16.050Z,43
2023-06-19T18:17:46.866Z,35
2023-06-19T18:20:17.264Z,44
2023-06-19T18:22:47.701Z,38
2023-06-19T18:25:18.136Z,44
2023-06-19T18:27:49.079Z,39
2023-06-19T18:30:21.220Z,40
2023-06-19T18:32:52.060Z,40
2023-06-19T18:35:22.920Z,44
2023-06-19T18:37:53.918Z,42
2023-06-19T18:40:25.260Z,41
2023-06-19T18:42:55.876Z,44
2023-06-19T18:45:26.248Z,41
2023-06-19T18:47:56.641Z,41
2023-06-19T18:50:27.702Z,43
2023-06-19T18:53:00.252Z,39
2023-06-19T18:55:30.482Z,39
2023-06-19T18:58:01.435Z,42
2023-06-19T19:00:33.028Z,36
2023-06-19T19:03:03.594Z,40
2023-06-19T19:05:34.066Z,40
2023-06-19T19:08:04.587Z,40
2023-06-19T19:10:35.641Z,39
2023-06-19T19:13:06.151Z,42
2023-06-19T19:15:38.427Z,41
2023-06-19T19:18:10.053Z,43
2023-06-19T19:20:40.596Z,44
2023-06-19T19:23:11.632Z,48
2023-06-19T19:25:42.657Z,45
2023-06-19T19:28:14.673Z,47
2023-06-19T19:30:47.040Z,43
2023-06-19T19:33:17.790Z,40
2023-06-19T19:35:48.170Z,48
2023-06-19T19:38:18.501Z,43
2023-06-19T19:40:49.156Z,45
2023-06-19T19:43:19.894Z,44
2023-06-19T19:45:50.522Z,45
2023-06-19T19:48:21.145Z,44
2023-06-19T19:50:51.941Z,43
2023-06-19T19:53:22.436Z,50
2023-06-19T19:55:52.520Z,53
2023-06-19T19:58:22.664Z,50
2023-06-19T20:00:52.790Z,53
2023-06-19T20:03:23.340Z,55
2023-06-19T20:05:53.858Z,52
2023-06-19T20:08:24.211Z,52
2023-06-19T20:10:54.664Z,51
2023-06-19T20:13:25.045Z,52
2023-06-19T20:15:55.487Z,44
2023-06-19T20:18:28.173Z,48
2023-06-19T20:20:59.928Z,50
2023-06-19T20:23:32.575Z,48
2023-06-19T20:26:03.174Z,48
2023-06-19T20:28:33.970Z,48
2023-06-19T20:31:04.890Z,48
2023-06-19T20:33:35.356Z,48
2023-06-19T20:36:10.718Z,54
2023-06-19T20:38:41.841Z,55
2023-06-19T20:41:13.242Z,57
2023-06-19T20:43:43.086Z,56
2023-06-19T20:46:14.294Z,58
2023-06-19T20:48:46.377Z,54
2023-06-19T20:51:17.931Z,51
2023-06-19T20:53:46.989Z,54
2023-06-19T20:56:19.409Z,49
2023-06-19T20:58:50.364Z,54
2023-06-19T21:01:19.295Z,45
2023-06-19T21:03:49.910Z,48
2023-06-19T21:06:20.435Z,52
2023-06-19T21:08:52.209Z,48
2023-06-19T21:11:23.514Z,50
2023-06-19T21:13:55.366Z,49
2023-06-19T21:16:26.024Z,51
2023-06-19T21:18:57.226Z,48
2023-06-19T21:21:28.651Z,48
2023-06-19T21:24:01.792Z,52
2023-06-19T21:26:34.101Z,50
2023-06-19T21:29:04.693Z,47
2023-06-19T21:31:35.235Z,45
2023-06-19T21:34:08.047Z,47
2023-06-19T21:36:38.551Z,43
2023-06-19T21:39:09.474Z,43
2023-06-19T21:41:39.863Z,47
2023-06-19T21:44:11.447Z,44
2023-06-19T21:46:42.628Z,44
2023-06-19T21:49:13.181Z,44
2023-06-19T21:51:43.805Z,48
2023-06-19T21:54:14.129Z,44
2023-06-19T21:56:44.500Z,47
2023-06-19T21:59:15.036Z,48
2023-06-19T22:01:45.676Z,44
2023-06-19T22:04:16.620Z,43
2023-06-19T22:06:47.050Z,49
2023-06-19T22:09:17.731Z,48
2023-06-19T22:11:48.762Z,46
2023-06-19T22:14:21.743Z,49
2023-06-19T22:16:52.254Z,44
2023-06-19T22:19:23.084Z,44
2023-06-19T22:21:53.779Z,48
2023-06-19T22:24:24.788Z,50
2023-06-19T22:26:55.706Z,48
2023-06-19T22:29:26.584Z,44
2023-06-19T22:31:57.367Z,46
2023-06-19T22:34:28.580Z,44
2023-06-19T22:36:59.186Z,45
2023-06-19T22:39:31.760Z,45
2023-06-19T22:42:02.399Z,43
2023-06-19T22:44:33.511Z,48
2023-06-19T22:47:03.927Z,44
2023-06-19T22:49:34.236Z,44
2023-06-19T22:52:04.816Z,44
2023-06-19T22:54:36.941Z,44
2023-06-19T22:57:12.083Z,54
2023-06-19T22:59:43.257Z,43
2023-06-19T23:02:14.981Z,44
2023-06-19T23:04:45.380Z,41
2023-06-19T23:07:16.012Z,43
2023-06-19T23:09:46.793Z,42
2023-06-19T23:12:17.981Z,44
2023-06-19T23:14:48.704Z,44
2023-06-19T23:17:19.313Z,44
2023-06-19T23:19:50.580Z,46
2023-06-19T23:22:21.579Z,44
2023-06-19T23:24:52.481Z,42
2023-06-19T23:27:23.095Z,45
2023-06-19T23:29:54.986Z,44
2023-06-19T23:32:25.767Z,44
2023-06-19T23:34:57.646Z,41
2023-06-19T23:37:28.423Z,48
2023-06-19T23:39:58.810Z,40
2023-06-19T23:42:29.730Z,40
2023-06-19T23:45:01.215Z,46
2023-06-19T23:47:31.535Z,41
2023-06-19T23:50:02.143Z,44
2023-06-19T23:52:42.580Z,44
2023-06-19T23:55:03.454Z,39
2023-06-19T23:57:34.003Z,48
